sensor_id;sensor_type;location;lat;lon;timestamp;P1;durP1;ratioP1;P2;durP2;ratioP2
16954;SDS011;8594;52.052;8.354;2022-09-21T00:00:19;6.50;;;4.10;;
16954;SDS011;8594;52.052;8.354;2022-09-21T00:02:46;7.13;;;3.90;;
16954;SDS011;8594;52.052;8.354;2022-09-21T00:05:13;5.27;;;3.60;;
16954;SDS011;8594;52.052;8.354;2022-09-21T00:07:42;7.90;;;3.93;;
16954;SDS011;8594;52.052;8.354;2022-09-21T00:10:09;5.73;;;3.40;;
16954;SDS011;8594;52.052;8.354;2022-09-21T00:12:36;7.03;;;3.63;;
16954;SDS011;8594;52.052;8.354;2022-09-21T00:15:04;6.70;;;3.57;;
16954;SDS011;8594;52.052;8.354;2022-09-21T00:17:33;6.70;;;3.33;;
16954;SDS011;8594;52.052;8.354;2022-09-21T00:20:01;8.13;;;3.90;;
16954;SDS011;8594;52.052;8.354;2022-09-21T00:22:30;7.93;;;3.47;;
16954;SDS011;8594;52.052;8.354;2022-09-21T00:24:58;10.13;;;3.73;;
16954;SDS011;8594;52.052;8.354;2022-09-21T00:27:27;6.13;;;3.10;;
16954;SDS011;8594;52.052;8.354;2022-09-21T00:29:55;9.43;;;3.90;;
16954;SDS011;8594;52.052;8.354;2022-09-21T00:32:22;7.60;;;3.37;;
16954;SDS011;8594;52.052;8.354;2022-09-21T00:34:49;8.37;;;3.37;;
16954;SDS011;8594;52.052;8.354;2022-09-21T00:37:16;5.37;;;3.40;;
16954;SDS011;8594;52.052;8.354;2022-09-21T00:39:44;6.20;;;2.63;;
16954;SDS011;8594;52.052;8.354;2022-09-21T00:42:13;6.20;;;2.50;;
16954;SDS011;8594;52.052;8.354;2022-09-21T00:44:44;6.90;;;2.87;;
16954;SDS011;8594;52.052;8.354;2022-09-21T00:47:12;5.30;;;2.87;;
16954;SDS011;8594;52.052;8.354;2022-09-21T00:49:41;7.53;;;2.90;;
16954;SDS011;8594;52.052;8.354;2022-09-21T00:52:13;7.10;;;2.43;;
16954;SDS011;8594;52.052;8.354;2022-09-21T00:54:44;5.43;;;2.77;;
16954;SDS011;8594;52.052;8.354;2022-09-21T00:57:18;6.00;;;2.50;;
16954;SDS011;8594;52.052;8.354;2022-09-21T00:59:49;16.90;;;2.47;;
16954;SDS011;8594;52.052;8.354;2022-09-21T01:02:20;4.60;;;2.00;;
16954;SDS011;8594;52.052;8.354;2022-09-21T01:04:47;3.60;;;2.37;;
16954;SDS011;8594;52.052;8.354;2022-09-21T01:07:19;2.93;;;2.10;;
16954;SDS011;8594;52.052;8.354;2022-09-21T01:09:53;8.60;;;2.30;;
16954;SDS011;8594;52.052;8.354;2022-09-21T01:12:32;5.20;;;2.20;;
16954;SDS011;8594;52.052;8.354;2022-09-21T01:15:18;3.50;;;2.27;;
16954;SDS011;8594;52.052;8.354;2022-09-21T01:18:00;5.63;;;2.30;;
16954;SDS011;8594;52.052;8.354;2022-09-21T01:20:49;4.37;;;2.10;;
16954;SDS011;8594;52.052;8.354;2022-09-21T01:24:01;5.40;;;1.90;;
16954;SDS011;8594;52.052;8.354;2022-09-21T01:29:58;5.57;;;2.00;;
16954;SDS011;8594;52.052;8.354;2022-09-21T01:32:32;3.07;;;1.80;;
16954;SDS011;8594;52.052;8.354;2022-09-21T01:35:05;4.50;;;1.70;;
16954;SDS011;8594;52.052;8.354;2022-09-21T01:37:39;3.77;;;1.60;;
16954;SDS011;8594;52.052;8.354;2022-09-21T01:40:13;2.70;;;1.67;;
16954;SDS011;8594;52.052;8.354;2022-09-21T01:42:47;7.33;;;1.50;;
16954;SDS011;8594;52.052;8.354;2022-09-21T01:45:18;4.80;;;1.70;;
16954;SDS011;8594;52.052;8.354;2022-09-21T01:47:53;2.73;;;1.87;;
16954;SDS011;8594;52.052;8.354;2022-09-21T01:50:22;7.27;;;1.90;;
16954;SDS011;8594;52.052;8.354;2022-09-21T01:52:52;3.67;;;1.97;;
16954;SDS011;8594;52.052;8.354;2022-09-21T01:55:28;3.70;;;1.83;;
16954;SDS011;8594;52.052;8.354;2022-09-21T01:58:04;3.43;;;1.70;;
16954;SDS011;8594;52.052;8.354;2022-09-21T02:00:40;8.60;;;1.93;;
16954;SDS011;8594;52.052;8.354;2022-09-21T02:03:13;2.60;;;1.60;;
16954;SDS011;8594;52.052;8.354;2022-09-21T02:05:49;6.00;;;2.20;;
16954;SDS011;8594;52.052;8.354;2022-09-21T02:08:16;2.07;;;1.50;;
16954;SDS011;8594;52.052;8.354;2022-09-21T02:10:43;2.23;;;1.40;;
16954;SDS011;8594;52.052;8.354;2022-09-21T02:13:15;4.07;;;1.90;;
16954;SDS011;8594;52.052;8.354;2022-09-21T02:15:51;4.70;;;1.80;;
16954;SDS011;8594;52.052;8.354;2022-09-21T02:18:38;2.17;;;1.57;;
16954;SDS011;8594;52.052;8.354;2022-09-21T02:21:22;2.63;;;1.90;;
16954;SDS011;8594;52.052;8.354;2022-09-21T02:23:56;4.20;;;1.87;;
16954;SDS011;8594;52.052;8.354;2022-09-21T02:26:34;4.50;;;2.10;;
16954;SDS011;8594;52.052;8.354;2022-09-21T02:29:13;3.63;;;1.53;;
16954;SDS011;8594;52.052;8.354;2022-09-21T02:31:51;7.23;;;2.20;;
16954;SDS011;8594;52.052;8.354;2022-09-21T02:34:29;8.47;;;2.03;;
16954;SDS011;8594;52.052;8.354;2022-09-21T02:37:04;7.73;;;2.20;;
16954;SDS011;8594;52.052;8.354;2022-09-21T02:39:42;7.53;;;1.80;;
16954;SDS011;8594;52.052;8.354;2022-09-21T02:42:20;7.73;;;1.97;;
16954;SDS011;8594;52.052;8.354;2022-09-21T02:44:54;4.60;;;1.40;;
16954;SDS011;8594;52.052;8.354;2022-09-21T02:47:30;10.43;;;2.20;;
16954;SDS011;8594;52.052;8.354;2022-09-21T02:50:04;3.83;;;1.57;;
16954;SDS011;8594;52.052;8.354;2022-09-21T02:52:36;5.10;;;1.70;;
16954;SDS011;8594;52.052;8.354;2022-09-21T02:55:08;6.47;;;1.70;;
16954;SDS011;8594;52.052;8.354;2022-09-21T02:57:37;8.83;;;1.57;;
16954;SDS011;8594;52.052;8.354;2022-09-21T03:00:05;3.13;;;1.53;;
16954;SDS011;8594;52.052;8.354;2022-09-21T03:02:36;5.27;;;1.67;;
16954;SDS011;8594;52.052;8.354;2022-09-21T03:05:04;7.50;;;1.53;;
16954;SDS011;8594;52.052;8.354;2022-09-21T03:07:33;6.20;;;1.83;;
16954;SDS011;8594;52.052;8.354;2022-09-21T03:09:59;2.30;;;1.33;;
16954;SDS011;8594;52.052;8.354;2022-09-21T03:12:27;6.73;;;1.70;;
16954;SDS011;8594;52.052;8.354;2022-09-21T03:14:56;3.13;;;1.40;;
16954;SDS011;8594;52.052;8.354;2022-09-21T03:17:23;3.47;;;1.40;;
16954;SDS011;8594;52.052;8.354;2022-09-21T03:19:52;5.97;;;1.50;;
16954;SDS011;8594;52.052;8.354;2022-09-21T03:22:19;4.10;;;1.70;;
16954;SDS011;8594;52.052;8.354;2022-09-21T03:24:46;3.13;;;1.40;;
16954;SDS011;8594;52.052;8.354;2022-09-21T03:27:13;5.80;;;2.10;;
16954;SDS011;8594;52.052;8.354;2022-09-21T03:29:42;4.53;;;1.60;;
16954;SDS011;8594;52.052;8.354;2022-09-21T03:32:09;3.70;;;1.80;;
16954;SDS011;8594;52.052;8.354;2022-09-21T03:34:37;11.03;;;1.97;;
16954;SDS011;8594;52.052;8.354;2022-09-21T03:37:06;3.30;;;1.73;;
16954;SDS011;8594;52.052;8.354;2022-09-21T03:39:35;4.13;;;2.00;;
16954;SDS011;8594;52.052;8.354;2022-09-21T03:42:02;8.03;;;3.00;;
16954;SDS011;8594;52.052;8.354;2022-09-21T03:44:29;3.30;;;1.80;;
16954;SDS011;8594;52.052;8.354;2022-09-21T03:46:56;7.20;;;2.30;;
16954;SDS011;8594;52.052;8.354;2022-09-21T03:49:23;3.20;;;2.07;;
16954;SDS011;8594;52.052;8.354;2022-09-21T03:51:50;3.50;;;2.30;;
16954;SDS011;8594;52.052;8.354;2022-09-21T03:54:19;7.37;;;2.53;;
16954;SDS011;8594;52.052;8.354;2022-09-21T03:56:46;5.20;;;1.90;;
16954;SDS011;8594;52.052;8.354;2022-09-21T03:59:13;9.50;;;2.80;;
16954;SDS011;8594;52.052;8.354;2022-09-21T04:01:39;7.40;;;2.00;;
16954;SDS011;8594;52.052;8.354;2022-09-21T04:04:06;3.23;;;1.90;;
16954;SDS011;8594;52.052;8.354;2022-09-21T04:06:34;5.83;;;2.20;;
16954;SDS011;8594;52.052;8.354;2022-09-21T04:09:01;6.10;;;2.37;;
16954;SDS011;8594;52.052;8.354;2022-09-21T04:11:29;6.17;;;2.40;;
16954;SDS011;8594;52.052;8.354;2022-09-21T04:13:56;13.07;;;2.90;;
16954;SDS011;8594;52.052;8.354;2022-09-21T04:16:24;7.77;;;2.97;;
16954;SDS011;8594;52.052;8.354;2022-09-21T04:18:51;12.50;;;2.90;;
16954;SDS011;8594;52.052;8.354;2022-09-21T04:21:18;7.17;;;2.60;;
16954;SDS011;8594;52.052;8.354;2022-09-21T04:23:46;6.40;;;2.57;;
16954;SDS011;8594;52.052;8.354;2022-09-21T04:26:17;7.97;;;3.23;;
16954;SDS011;8594;52.052;8.354;2022-09-21T04:28:49;9.67;;;2.60;;
16954;SDS011;8594;52.052;8.354;2022-09-21T04:31:16;5.60;;;2.30;;
16954;SDS011;8594;52.052;8.354;2022-09-21T04:33:43;19.43;;;3.77;;
16954;SDS011;8594;52.052;8.354;2022-09-21T04:36:14;11.33;;;3.70;;
16954;SDS011;8594;52.052;8.354;2022-09-21T04:38:42;10.80;;;3.30;;
16954;SDS011;8594;52.052;8.354;2022-09-21T04:41:09;9.67;;;3.30;;
16954;SDS011;8594;52.052;8.354;2022-09-21T04:43:36;18.63;;;4.63;;
16954;SDS011;8594;52.052;8.354;2022-09-21T04:46:05;7.47;;;4.10;;
16954;SDS011;8594;52.052;8.354;2022-09-21T04:48:34;14.73;;;4.00;;
16954;SDS011;8594;52.052;8.354;2022-09-21T04:51:01;14.27;;;4.10;;
16954;SDS011;8594;52.052;8.354;2022-09-21T04:53:30;7.33;;;3.57;;
16954;SDS011;8594;52.052;8.354;2022-09-21T04:55:57;16.30;;;5.23;;
16954;SDS011;8594;52.052;8.354;2022-09-21T04:58:23;9.90;;;4.00;;
16954;SDS011;8594;52.052;8.354;2022-09-21T05:00:51;13.73;;;5.00;;
16954;SDS011;8594;52.052;8.354;2022-09-21T05:03:20;11.83;;;4.27;;
16954;SDS011;8594;52.052;8.354;2022-09-21T05:05:49;6.63;;;4.13;;
16954;SDS011;8594;52.052;8.354;2022-09-21T05:08:18;15.97;;;5.47;;
16954;SDS011;8594;52.052;8.354;2022-09-21T05:11:06;14.37;;;4.70;;
16954;SDS011;8594;52.052;8.354;2022-09-21T05:13:34;11.53;;;5.00;;
16954;SDS011;8594;52.052;8.354;2022-09-21T05:16:01;7.90;;;4.87;;
16954;SDS011;8594;52.052;8.354;2022-09-21T05:18:29;8.57;;;4.83;;
16954;SDS011;8594;52.052;8.354;2022-09-21T05:20:56;9.97;;;5.80;;
16954;SDS011;8594;52.052;8.354;2022-09-21T05:23:26;13.90;;;5.90;;
16954;SDS011;8594;52.052;8.354;2022-09-21T05:25:54;17.07;;;6.83;;
16954;SDS011;8594;52.052;8.354;2022-09-21T05:28:22;23.33;;;7.43;;
16954;SDS011;8594;52.052;8.354;2022-09-21T05:30:52;15.17;;;7.47;;
16954;SDS011;8594;52.052;8.354;2022-09-21T05:33:25;22.50;;;8.63;;
16954;SDS011;8594;52.052;8.354;2022-09-21T05:35:58;25.07;;;9.00;;
16954;SDS011;8594;52.052;8.354;2022-09-21T05:38:35;18.03;;;8.10;;
16954;SDS011;8594;52.052;8.354;2022-09-21T05:41:02;16.83;;;8.20;;
16954;SDS011;8594;52.052;8.354;2022-09-21T05:43:30;17.43;;;8.43;;
16954;SDS011;8594;52.052;8.354;2022-09-21T05:46:00;20.23;;;9.23;;
16954;SDS011;8594;52.052;8.354;2022-09-21T05:48:39;20.80;;;10.77;;
16954;SDS011;8594;52.052;8.354;2022-09-21T05:51:14;21.37;;;9.17;;
16954;SDS011;8594;52.052;8.354;2022-09-21T05:53:56;21.57;;;9.10;;
16954;SDS011;8594;52.052;8.354;2022-09-21T05:56:37;17.73;;;9.13;;
16954;SDS011;8594;52.052;8.354;2022-09-21T05:59:27;18.03;;;9.30;;
16954;SDS011;8594;52.052;8.354;2022-09-21T06:02:11;14.70;;;8.47;;
16954;SDS011;8594;52.052;8.354;2022-09-21T06:04:55;20.40;;;9.50;;
16954;SDS011;8594;52.052;8.354;2022-09-21T06:07:26;16.97;;;8.47;;
16954;SDS011;8594;52.052;8.354;2022-09-21T06:09:54;22.10;;;9.03;;
16954;SDS011;8594;52.052;8.354;2022-09-21T06:12:20;18.77;;;8.87;;
16954;SDS011;8594;52.052;8.354;2022-09-21T06:14:47;24.43;;;9.63;;
16954;SDS011;8594;52.052;8.354;2022-09-21T06:17:14;21.77;;;9.87;;
16954;SDS011;8594;52.052;8.354;2022-09-21T06:19:41;21.67;;;10.10;;
16954;SDS011;8594;52.052;8.354;2022-09-21T06:22:09;21.23;;;10.90;;
16954;SDS011;8594;52.052;8.354;2022-09-21T06:24:36;21.87;;;10.37;;
16954;SDS011;8594;52.052;8.354;2022-09-21T06:27:02;19.17;;;9.73;;
16954;SDS011;8594;52.052;8.354;2022-09-21T06:29:29;20.93;;;10.90;;
16954;SDS011;8594;52.052;8.354;2022-09-21T06:31:56;19.00;;;9.93;;
16954;SDS011;8594;52.052;8.354;2022-09-21T06:34:23;26.13;;;12.30;;
16954;SDS011;8594;52.052;8.354;2022-09-21T06:36:50;19.33;;;10.67;;
16954;SDS011;8594;52.052;8.354;2022-09-21T06:39:18;24.50;;;10.20;;
16954;SDS011;8594;52.052;8.354;2022-09-21T06:41:45;24.57;;;10.33;;
16954;SDS011;8594;52.052;8.354;2022-09-21T06:44:12;21.00;;;10.47;;
16954;SDS011;8594;52.052;8.354;2022-09-21T06:46:39;15.57;;;9.87;;
16954;SDS011;8594;52.052;8.354;2022-09-21T06:49:06;16.23;;;9.27;;
16954;SDS011;8594;52.052;8.354;2022-09-21T06:51:32;16.63;;;9.07;;
16954;SDS011;8594;52.052;8.354;2022-09-21T06:54:00;16.07;;;9.93;;
16954;SDS011;8594;52.052;8.354;2022-09-21T06:56:28;17.23;;;10.13;;
16954;SDS011;8594;52.052;8.354;2022-09-21T06:58:55;14.20;;;9.70;;
16954;SDS011;8594;52.052;8.354;2022-09-21T07:01:22;15.37;;;9.20;;
16954;SDS011;8594;52.052;8.354;2022-09-21T07:03:50;17.30;;;9.27;;
16954;SDS011;8594;52.052;8.354;2022-09-21T07:06:18;21.23;;;10.10;;
16954;SDS011;8594;52.052;8.354;2022-09-21T07:08:45;15.77;;;8.40;;
16954;SDS011;8594;52.052;8.354;2022-09-21T07:11:13;17.00;;;8.43;;
16954;SDS011;8594;52.052;8.354;2022-09-21T07:13:41;14.50;;;8.50;;
16954;SDS011;8594;52.052;8.354;2022-09-21T07:16:09;13.73;;;8.27;;
16954;SDS011;8594;52.052;8.354;2022-09-21T07:18:38;16.17;;;8.63;;
16954;SDS011;8594;52.052;8.354;2022-09-21T07:21:06;15.23;;;8.90;;
16954;SDS011;8594;52.052;8.354;2022-09-21T07:23:35;12.90;;;7.90;;
16954;SDS011;8594;52.052;8.354;2022-09-21T07:26:04;15.97;;;8.50;;
16954;SDS011;8594;52.052;8.354;2022-09-21T07:28:34;20.83;;;9.83;;
16954;SDS011;8594;52.052;8.354;2022-09-21T07:31:06;14.33;;;8.57;;
16954;SDS011;8594;52.052;8.354;2022-09-21T07:33:34;10.90;;;8.17;;
16954;SDS011;8594;52.052;8.354;2022-09-21T07:36:02;15.37;;;8.70;;
16954;SDS011;8594;52.052;8.354;2022-09-21T07:38:34;15.40;;;8.07;;
16954;SDS011;8594;52.052;8.354;2022-09-21T07:41:01;11.40;;;7.40;;
16954;SDS011;8594;52.052;8.354;2022-09-21T07:43:28;14.00;;;8.97;;
16954;SDS011;8594;52.052;8.354;2022-09-21T07:45:55;13.30;;;8.20;;
16954;SDS011;8594;52.052;8.354;2022-09-21T07:48:23;18.03;;;8.77;;
16954;SDS011;8594;52.052;8.354;2022-09-21T07:50:50;12.63;;;7.57;;
16954;SDS011;8594;52.052;8.354;2022-09-21T07:53:17;16.47;;;8.17;;
16954;SDS011;8594;52.052;8.354;2022-09-21T07:55:44;13.87;;;7.73;;
16954;SDS011;8594;52.052;8.354;2022-09-21T07:58:11;14.00;;;8.27;;
16954;SDS011;8594;52.052;8.354;2022-09-21T08:00:55;13.10;;;7.87;;
16954;SDS011;8594;52.052;8.354;2022-09-21T08:03:22;13.53;;;7.77;;
16954;SDS011;8594;52.052;8.354;2022-09-21T08:05:50;14.67;;;7.70;;
16954;SDS011;8594;52.052;8.354;2022-09-21T08:08:17;12.83;;;7.23;;
16954;SDS011;8594;52.052;8.354;2022-09-21T08:10:43;14.30;;;7.23;;
16954;SDS011;8594;52.052;8.354;2022-09-21T08:13:10;10.73;;;6.60;;
16954;SDS011;8594;52.052;8.354;2022-09-21T08:15:37;14.53;;;6.73;;
16954;SDS011;8594;52.052;8.354;2022-09-21T08:18:04;11.90;;;6.20;;
16954;SDS011;8594;52.052;8.354;2022-09-21T08:20:33;17.83;;;6.30;;
16954;SDS011;8594;52.052;8.354;2022-09-21T08:23:00;13.10;;;6.00;;
16954;SDS011;8594;52.052;8.354;2022-09-21T08:25:27;8.83;;;5.47;;
16954;SDS011;8594;52.052;8.354;2022-09-21T08:27:56;10.17;;;6.30;;
16954;SDS011;8594;52.052;8.354;2022-09-21T08:30:24;8.90;;;5.70;;
16954;SDS011;8594;52.052;8.354;2022-09-21T08:32:55;9.33;;;6.23;;
16954;SDS011;8594;52.052;8.354;2022-09-21T08:35:21;11.73;;;6.30;;
16954;SDS011;8594;52.052;8.354;2022-09-21T08:37:51;13.90;;;5.37;;
16954;SDS011;8594;52.052;8.354;2022-09-21T08:40:18;10.27;;;6.23;;
16954;SDS011;8594;52.052;8.354;2022-09-21T08:42:47;9.20;;;5.33;;
16954;SDS011;8594;52.052;8.354;2022-09-21T08:45:25;8.60;;;5.43;;
16954;SDS011;8594;52.052;8.354;2022-09-21T08:47:59;15.07;;;5.27;;
16954;SDS011;8594;52.052;8.354;2022-09-21T08:50:32;6.33;;;4.27;;
16954;SDS011;8594;52.052;8.354;2022-09-21T08:53:07;9.90;;;4.70;;
16954;SDS011;8594;52.052;8.354;2022-09-21T08:55:39;9.93;;;5.10;;
16954;SDS011;8594;52.052;8.354;2022-09-21T08:58:09;11.83;;;4.87;;
16954;SDS011;8594;52.052;8.354;2022-09-21T09:00:48;11.83;;;4.30;;
16954;SDS011;8594;52.052;8.354;2022-09-21T09:03:34;16.43;;;5.33;;
16954;SDS011;8594;52.052;8.354;2022-09-21T09:06:20;9.53;;;4.00;;
16954;SDS011;8594;52.052;8.354;2022-09-21T09:09:03;16.00;;;4.90;;
16954;SDS011;8594;52.052;8.354;2022-09-21T09:12:11;10.70;;;3.43;;
16954;SDS011;8594;52.052;8.354;2022-09-21T09:15:02;11.60;;;3.00;;
16954;SDS011;8594;52.052;8.354;2022-09-21T09:17:49;9.93;;;3.90;;
16954;SDS011;8594;52.052;8.354;2022-09-21T09:20:22;9.03;;;4.13;;
16954;SDS011;8594;52.052;8.354;2022-09-21T09:23:05;10.07;;;3.80;;
16954;SDS011;8594;52.052;8.354;2022-09-21T09:25:41;13.27;;;4.07;;
16954;SDS011;8594;52.052;8.354;2022-09-21T09:28:15;10.53;;;4.70;;
16954;SDS011;8594;52.052;8.354;2022-09-21T09:30:55;11.63;;;4.13;;
16954;SDS011;8594;52.052;8.354;2022-09-21T09:33:27;9.60;;;3.60;;
16954;SDS011;8594;52.052;8.354;2022-09-21T09:36:08;12.10;;;4.00;;
16954;SDS011;8594;52.052;8.354;2022-09-21T09:38:38;11.33;;;4.13;;
16954;SDS011;8594;52.052;8.354;2022-09-21T09:41:19;17.40;;;4.30;;
16954;SDS011;8594;52.052;8.354;2022-09-21T09:44:29;11.93;;;4.10;;
16954;SDS011;8594;52.052;8.354;2022-09-21T09:47:16;8.77;;;4.00;;
16954;SDS011;8594;52.052;8.354;2022-09-21T09:50:03;11.27;;;3.97;;
16954;SDS011;8594;52.052;8.354;2022-09-21T09:52:37;11.07;;;4.00;;
16954;SDS011;8594;52.052;8.354;2022-09-21T09:55:10;9.77;;;4.20;;
16954;SDS011;8594;52.052;8.354;2022-09-21T09:57:45;8.03;;;4.17;;
16954;SDS011;8594;52.052;8.354;2022-09-21T10:00:15;9.20;;;3.30;;
16954;SDS011;8594;52.052;8.354;2022-09-21T10:02:46;9.00;;;3.73;;
16954;SDS011;8594;52.052;8.354;2022-09-21T10:05:19;10.17;;;3.67;;
16954;SDS011;8594;52.052;8.354;2022-09-21T10:07:49;8.97;;;3.77;;
16954;SDS011;8594;52.052;8.354;2022-09-21T10:10:29;9.67;;;4.27;;
16954;SDS011;8594;52.052;8.354;2022-09-21T10:13:10;11.00;;;3.93;;
16954;SDS011;8594;52.052;8.354;2022-09-21T10:15:43;10.03;;;4.03;;
16954;SDS011;8594;52.052;8.354;2022-09-21T10:18:19;9.17;;;3.57;;
16954;SDS011;8594;52.052;8.354;2022-09-21T10:20:55;6.87;;;3.20;;
16954;SDS011;8594;52.052;8.354;2022-09-21T10:23:26;8.73;;;2.97;;
16954;SDS011;8594;52.052;8.354;2022-09-21T10:25:56;9.07;;;3.60;;
16954;SDS011;8594;52.052;8.354;2022-09-21T10:28:28;7.37;;;2.87;;
16954;SDS011;8594;52.052;8.354;2022-09-21T10:31:09;9.23;;;2.83;;
16954;SDS011;8594;52.052;8.354;2022-09-21T10:33:45;6.53;;;2.90;;
16954;SDS011;8594;52.052;8.354;2022-09-21T10:36:24;6.50;;;2.57;;
16954;SDS011;8594;52.052;8.354;2022-09-21T10:38:54;7.87;;;2.53;;
16954;SDS011;8594;52.052;8.354;2022-09-21T10:41:35;7.57;;;2.23;;
16954;SDS011;8594;52.052;8.354;2022-09-21T10:44:04;8.63;;;2.20;;
16954;SDS011;8594;52.052;8.354;2022-09-21T10:46:41;8.17;;;2.40;;
16954;SDS011;8594;52.052;8.354;2022-09-21T10:49:14;5.43;;;2.13;;
16954;SDS011;8594;52.052;8.354;2022-09-21T10:51:46;4.97;;;1.80;;
16954;SDS011;8594;52.052;8.354;2022-09-21T10:54:20;6.80;;;2.47;;
16954;SDS011;8594;52.052;8.354;2022-09-21T10:56:52;7.70;;;1.93;;
16954;SDS011;8594;52.052;8.354;2022-09-21T10:59:25;8.13;;;1.93;;
16954;SDS011;8594;52.052;8.354;2022-09-21T11:01:55;5.87;;;2.00;;
16954;SDS011;8594;52.052;8.354;2022-09-21T11:04:27;6.73;;;2.20;;
16954;SDS011;8594;52.052;8.354;2022-09-21T11:07:03;5.73;;;1.93;;
16954;SDS011;8594;52.052;8.354;2022-09-21T11:09:42;5.70;;;2.10;;
16954;SDS011;8594;52.052;8.354;2022-09-21T11:12:31;7.37;;;2.23;;
16954;SDS011;8594;52.052;8.354;2022-09-21T11:15:17;8.43;;;1.97;;
16954;SDS011;8594;52.052;8.354;2022-09-21T11:17:58;11.27;;;2.43;;
16954;SDS011;8594;52.052;8.354;2022-09-21T11:20:40;8.10;;;2.27;;
16954;SDS011;8594;52.052;8.354;2022-09-21T11:23:17;6.47;;;1.80;;
16954;SDS011;8594;52.052;8.354;2022-09-21T11:25:59;6.43;;;1.80;;
16954;SDS011;8594;52.052;8.354;2022-09-21T11:28:36;4.23;;;1.50;;
16954;SDS011;8594;52.052;8.354;2022-09-21T11:31:28;5.37;;;1.63;;
16954;SDS011;8594;52.052;8.354;2022-09-21T11:34:19;7.80;;;1.97;;
16954;SDS011;8594;52.052;8.354;2022-09-21T11:37:17;5.00;;;1.73;;
16954;SDS011;8594;52.052;8.354;2022-09-21T11:40:13;8.00;;;2.10;;
16954;SDS011;8594;52.052;8.354;2022-09-21T11:42:58;9.47;;;2.00;;
16954;SDS011;8594;52.052;8.354;2022-09-21T11:45:44;9.70;;;2.20;;
16954;SDS011;8594;52.052;8.354;2022-09-21T11:48:30;6.67;;;2.10;;
16954;SDS011;8594;52.052;8.354;2022-09-21T11:51:17;7.13;;;1.93;;
16954;SDS011;8594;52.052;8.354;2022-09-21T11:54:11;7.70;;;1.80;;
16954;SDS011;8594;52.052;8.354;2022-09-21T11:56:56;4.47;;;1.63;;
16954;SDS011;8594;52.052;8.354;2022-09-21T11:59:43;10.70;;;2.00;;
16954;SDS011;8594;52.052;8.354;2022-09-21T12:02:35;8.57;;;2.70;;
16954;SDS011;8594;52.052;8.354;2022-09-21T12:05:21;4.40;;;1.63;;
16954;SDS011;8594;52.052;8.354;2022-09-21T12:08:03;8.03;;;1.87;;
16954;SDS011;8594;52.052;8.354;2022-09-21T12:10:57;8.80;;;2.30;;
16954;SDS011;8594;52.052;8.354;2022-09-21T12:13:37;5.37;;;1.97;;
16954;SDS011;8594;52.052;8.354;2022-09-21T12:16:18;4.20;;;1.70;;
16954;SDS011;8594;52.052;8.354;2022-09-21T12:18:56;4.97;;;1.57;;
16954;SDS011;8594;52.052;8.354;2022-09-21T12:21:32;7.17;;;1.57;;
16954;SDS011;8594;52.052;8.354;2022-09-21T12:24:05;4.43;;;1.60;;
16954;SDS011;8594;52.052;8.354;2022-09-21T12:26:42;5.57;;;1.97;;
16954;SDS011;8594;52.052;8.354;2022-09-21T12:29:16;4.57;;;1.33;;
16954;SDS011;8594;52.052;8.354;2022-09-21T12:31:55;5.43;;;1.50;;
16954;SDS011;8594;52.052;8.354;2022-09-21T12:34:30;6.40;;;1.60;;
16954;SDS011;8594;52.052;8.354;2022-09-21T12:37:08;4.87;;;1.23;;
16954;SDS011;8594;52.052;8.354;2022-09-21T12:39:41;3.23;;;1.03;;
16954;SDS011;8594;52.052;8.354;2022-09-21T12:42:24;8.27;;;1.50;;
16954;SDS011;8594;52.052;8.354;2022-09-21T12:45:00;6.80;;;1.50;;
16954;SDS011;8594;52.052;8.354;2022-09-21T12:47:36;3.67;;;1.30;;
16954;SDS011;8594;52.052;8.354;2022-09-21T12:50:15;6.00;;;1.50;;
16954;SDS011;8594;52.052;8.354;2022-09-21T12:52:49;7.10;;;1.80;;
16954;SDS011;8594;52.052;8.354;2022-09-21T12:55:21;5.43;;;1.60;;
16954;SDS011;8594;52.052;8.354;2022-09-21T12:58:06;4.73;;;1.60;;
16954;SDS011;8594;52.052;8.354;2022-09-21T13:00:48;4.37;;;1.47;;
16954;SDS011;8594;52.052;8.354;2022-09-21T13:03:29;5.30;;;1.20;;
16954;SDS011;8594;52.052;8.354;2022-09-21T13:06:05;9.40;;;1.40;;
16954;SDS011;8594;52.052;8.354;2022-09-21T13:08:59;7.80;;;1.67;;
16954;SDS011;8594;52.052;8.354;2022-09-21T13:11:28;4.33;;;1.40;;
16954;SDS011;8594;52.052;8.354;2022-09-21T13:13:59;5.93;;;1.53;;
16954;SDS011;8594;52.052;8.354;2022-09-21T13:16:29;8.27;;;1.70;;
16954;SDS011;8594;52.052;8.354;2022-09-21T13:19:00;9.97;;;2.00;;
16954;SDS011;8594;52.052;8.354;2022-09-21T13:21:30;8.73;;;1.70;;
16954;SDS011;8594;52.052;8.354;2022-09-21T13:24:00;7.80;;;1.93;;
16954;SDS011;8594;52.052;8.354;2022-09-21T13:26:31;7.50;;;1.87;;
16954;SDS011;8594;52.052;8.354;2022-09-21T13:29:03;5.83;;;1.90;;
16954;SDS011;8594;52.052;8.354;2022-09-21T13:32:02;9.17;;;1.80;;
16954;SDS011;8594;52.052;8.354;2022-09-21T13:34:46;10.77;;;2.03;;
16954;SDS011;8594;52.052;8.354;2022-09-21T13:43:20;5.53;;;1.43;;
16954;SDS011;8594;52.052;8.354;2022-09-21T13:49:29;4.93;;;1.17;;
16954;SDS011;8594;52.052;8.354;2022-09-21T13:52:05;6.37;;;1.40;;
16954;SDS011;8594;52.052;8.354;2022-09-21T13:54:51;6.33;;;1.90;;
16954;SDS011;8594;52.052;8.354;2022-09-21T13:57:24;6.73;;;1.60;;
16954;SDS011;8594;52.052;8.354;2022-09-21T14:00:04;5.77;;;1.80;;
16954;SDS011;8594;52.052;8.354;2022-09-21T14:02:54;7.37;;;1.60;;
16954;SDS011;8594;52.052;8.354;2022-09-21T14:05:26;5.87;;;1.57;;
16954;SDS011;8594;52.052;8.354;2022-09-21T14:08:00;14.50;;;1.67;;
16954;SDS011;8594;52.052;8.354;2022-09-21T14:10:31;5.40;;;1.73;;
16954;SDS011;8594;52.052;8.354;2022-09-21T14:13:05;3.47;;;1.43;;
16954;SDS011;8594;52.052;8.354;2022-09-21T14:15:52;7.20;;;1.40;;
16954;SDS011;8594;52.052;8.354;2022-09-21T14:21:06;7.57;;;1.60;;
16954;SDS011;8594;52.052;8.354;2022-09-21T14:27:01;5.17;;;1.50;;
16954;SDS011;8594;52.052;8.354;2022-09-21T14:29:43;6.00;;;1.40;;
16954;SDS011;8594;52.052;8.354;2022-09-21T14:32:17;6.17;;;1.90;;
16954;SDS011;8594;52.052;8.354;2022-09-21T14:34:52;4.00;;;1.40;;
16954;SDS011;8594;52.052;8.354;2022-09-21T14:37:39;10.20;;;1.80;;
16954;SDS011;8594;52.052;8.354;2022-09-21T14:40:15;7.93;;;1.60;;
16954;SDS011;8594;52.052;8.354;2022-09-21T14:42:47;7.43;;;1.73;;
16954;SDS011;8594;52.052;8.354;2022-09-21T14:45:17;5.53;;;1.47;;
16954;SDS011;8594;52.052;8.354;2022-09-21T14:47:56;5.67;;;1.40;;
16954;SDS011;8594;52.052;8.354;2022-09-21T14:50:34;3.70;;;1.40;;
16954;SDS011;8594;52.052;8.354;2022-09-21T14:53:20;4.63;;;1.83;;
16954;SDS011;8594;52.052;8.354;2022-09-21T14:56:24;4.10;;;1.30;;
16954;SDS011;8594;52.052;8.354;2022-09-21T14:59:09;6.87;;;1.83;;
16954;SDS011;8594;52.052;8.354;2022-09-21T15:01:58;6.43;;;1.60;;
16954;SDS011;8594;52.052;8.354;2022-09-21T15:04:28;6.33;;;2.03;;
16954;SDS011;8594;52.052;8.354;2022-09-21T15:07:15;7.80;;;1.70;;
16954;SDS011;8594;52.052;8.354;2022-09-21T15:10:14;8.17;;;1.80;;
16954;SDS011;8594;52.052;8.354;2022-09-21T15:13:09;4.77;;;1.70;;
16954;SDS011;8594;52.052;8.354;2022-09-21T15:15:51;4.13;;;1.40;;
16954;SDS011;8594;52.052;8.354;2022-09-21T15:18:40;7.43;;;1.60;;
16954;SDS011;8594;52.052;8.354;2022-09-21T15:21:15;3.50;;;1.27;;
16954;SDS011;8594;52.052;8.354;2022-09-21T15:23:48;7.10;;;1.37;;
16954;SDS011;8594;52.052;8.354;2022-09-21T15:26:18;3.83;;;1.20;;
16954;SDS011;8594;52.052;8.354;2022-09-21T15:28:52;10.30;;;1.50;;
16954;SDS011;8594;52.052;8.354;2022-09-21T15:31:22;4.47;;;1.70;;
16954;SDS011;8594;52.052;8.354;2022-09-21T15:33:50;10.10;;;1.70;;
16954;SDS011;8594;52.052;8.354;2022-09-21T15:36:19;4.53;;;1.50;;
16954;SDS011;8594;52.052;8.354;2022-09-21T15:38:48;14.13;;;2.50;;
16954;SDS011;8594;52.052;8.354;2022-09-21T15:44:13;7.70;;;1.77;;
16954;SDS011;8594;52.052;8.354;2022-09-21T15:46:43;7.50;;;1.90;;
16954;SDS011;8594;52.052;8.354;2022-09-21T15:49:16;3.27;;;1.30;;
16954;SDS011;8594;52.052;8.354;2022-09-21T15:51:46;4.60;;;1.53;;
16954;SDS011;8594;52.052;8.354;2022-09-21T15:54:25;4.93;;;1.60;;
16954;SDS011;8594;52.052;8.354;2022-09-21T15:56:57;4.40;;;1.60;;